Time;durP1;ratioP1;P1;durP2;ratioP2;P2;SDS_P1;SDS_P2;PMS_P1;PMS_P2;Temp;Humidity;BMP_temperature;BMP_pressure;BME280_temperature;BME280_humidity;BME280_pressure;Samples;Min_cycle;Max_cycle;Signal;HPM_P1;HPM_P2
2024/02/25 00:01:17;;;;;;;3.77;3.20;;;2.40;99.90;2.10;99773.00;;;;4928350;28;87996;-65
2024/02/25 00:03:43;;;;;;;2.47;2.00;;;2.40;99.90;2.10;99770.00;;;;4926426;28;101175;-65
2024/02/25 00:06:09;;;;;;;5.97;2.73;;;2.30;99.90;2.20;99765.00;;;;4928651;28;87345;-65
2024/02/25 00:08:35;;;;;;;3.03;2.73;;;2.40;99.90;2.20;99766.00;;;;4929977;28;88013;-65
2024/02/25 00:11:01;;;;;;;4.37;2.23;;;2.50;99.90;2.20;99759.00;;;;4927452;28;89788;-65
2024/02/25 00:13:27;;;;;;;2.77;2.37;;;2.50;99.90;2.30;99775.00;;;;4933961;28;106171;-65
2024/02/25 00:15:53;;;;;;;2.77;2.50;;;2.50;99.90;2.30;99767.00;;;;4938901;28;116308;-65
2024/02/25 00:18:19;;;;;;;8.03;3.77;;;2.50;99.90;2.30;99773.00;;;;4925686;28;88008;-65
2024/02/25 00:20:45;;;;;;;3.50;3.20;;;2.60;99.90;2.40;99789.00;;;;4927869;28;87854;-65
2024/02/25 00:23:11;;;;;;;4.80;3.73;;;2.60;99.90;2.50;99797.00;;;;4926213;28;108981;-65
2024/02/25 00:25:37;;;;;;;4.20;3.00;;;2.60;99.90;2.50;99788.00;;;;4927719;28;118126;-65
2024/02/25 00:28:03;;;;;;;13.33;4.37;;;2.70;99.90;2.50;99788.00;;;;4929129;28;88408;-65
2024/02/25 00:30:30;;;;;;;4.27;3.47;;;2.80;99.90;2.50;99789.00;;;;4931506;28;94860;-65
2024/02/25 00:32:56;;;;;;;4.23;3.30;;;2.70;99.90;2.50;99788.00;;;;4932390;28;89007;-65
2024/02/25 00:35:21;;;;;;;7.40;3.57;;;2.30;99.90;2.50;99786.00;;;;4932094;28;116101;-65
2024/02/25 00:37:48;;;;;;;4.60;2.53;;;2.70;99.90;2.60;99790.00;;;;4933269;28;88955;-65
2024/02/25 00:40:15;;;;;;;2.97;2.20;;;2.90;99.90;2.60;99787.00;;;;4938465;28;87905;-66
2024/02/25 00:42:41;;;;;;;5.73;3.33;;;2.90;99.90;2.70;99771.00;;;;4930659;28;87801;-65
2024/02/25 00:45:08;;;;;;;3.33;2.87;;;3.80;99.90;2.70;99771.00;;;;4936869;28;87808;-65
2024/02/25 00:47:36;;;;;;;6.73;2.97;;;2.90;99.90;2.70;99771.00;;;;4934773;28;109504;-65
2024/02/25 00:50:03;;;;;;;3.90;2.93;;;3.00;99.90;2.70;99776.00;;;;4926425;28;88654;-65
2024/02/25 00:52:31;;;;;;;4.33;2.67;;;3.00;99.90;2.70;99771.00;;;;4939038;28;88101;-65
2024/02/25 00:54:58;;;;;;;3.17;2.27;;;3.20;99.90;2.60;99774.00;;;;4931852;28;87619;-65
2024/02/25 00:57:24;;;;;;;5.77;3.07;;;2.80;99.90;2.50;99768.00;;;;4932413;28;110755;-65
2024/02/25 00:59:49;;;;;;;4.37;2.90;;;2.90;99.90;2.50;99777.00;;;;4933310;28;88046;-65
2024/02/25 01:02:15;;;;;;;3.13;2.23;;;2.70;99.90;2.50;99773.00;;;;4930785;28;107806;-67
2024/02/25 01:04:41;;;;;;;4.60;3.10;;;2.70;99.90;2.50;99759.00;;;;4931970;28;110362;-67
2024/02/25 01:07:06;;;;;;;4.07;2.60;;;2.80;99.90;2.50;99761.00;;;;4932838;28;116906;-67
2024/02/25 01:09:32;;;;;;;4.33;3.30;;;4.40;99.90;2.50;99765.00;;;;4934754;28;116738;-67
2024/02/25 01:11:58;;;;;;;3.97;3.03;;;2.70;99.90;2.50;99764.00;;;;4929623;28;87733;-67
2024/02/25 01:14:24;;;;;;;4.37;2.70;;;2.70;99.90;2.60;99756.00;;;;4926516;28;117830;-66
2024/02/25 01:16:50;;;;;;;4.50;2.53;;;2.70;99.90;2.60;99752.00;;;;4931939;28;88671;-66
2024/02/25 01:19:17;;;;;;;8.43;3.27;;;2.80;99.90;2.60;99748.00;;;;4930730;28;87191;-66
2024/02/25 01:21:44;;;;;;;4.07;2.70;;;2.80;99.90;2.60;99753.00;;;;4929878;28;87852;-66
2024/02/25 01:24:09;;;;;;;6.23;2.63;;;2.80;99.90;2.60;99746.00;;;;4931965;28;118684;-66
2024/02/25 01:26:41;;;;;;;3.37;2.23;;;2.80;99.90;2.50;99752.00;;;;4930135;28;117566;-66
2024/02/25 01:29:08;;;;;;;4.80;2.90;;;2.80;99.90;2.50;99753.00;;;;4929197;28;110567;-66
2024/02/25 01:31:40;;;;;;;3.80;2.43;;;2.80;99.90;2.50;99750.00;;;;4932156;28;88185;-66
2024/02/25 01:34:06;;;;;;;3.20;2.73;;;2.70;99.90;2.50;99743.00;;;;4928585;28;106797;-67
2024/02/25 01:36:32;;;;;;;7.67;4.43;;;3.10;99.90;2.50;99738.00;;;;4932686;28;116421;-66
2024/02/25 01:38:59;;;;;;;8.17;3.63;;;2.70;99.90;2.40;99726.00;;;;4928707;28;110983;-66
2024/02/25 01:41:25;;;;;;;7.80;4.17;;;2.70;99.90;2.40;99735.00;;;;4935935;28;88061;-66
2024/02/25 01:43:51;;;;;;;6.73;5.03;;;2.70;99.90;2.40;99734.00;;;;4936016;28;88148;-66
2024/02/25 01:46:17;;;;;;;5.20;3.43;;;2.70;99.90;2.30;99722.00;;;;4928786;28;116149;-66
2024/02/25 01:48:45;;;;;;;4.20;3.10;;;2.60;99.90;2.30;99732.00;;;;4932557;28;88435;-66
2024/02/25 01:51:11;;;;;;;3.57;3.10;;;2.60;99.90;2.30;99729.00;;;;4930323;28;89268;-66
2024/02/25 01:53:38;;;;;;;10.87;5.50;;;3.00;99.90;2.30;99726.00;;;;4927588;28;94904;-67
2024/02/25 01:56:04;;;;;;;5.97;4.33;;;1.50;99.90;2.20;99730.00;;;;4944407;28;109321;-66
2024/02/25 01:58:30;;;;;;;6.73;5.00;;;2.50;99.90;2.20;99747.00;;;;4932123;28;102814;-66
2024/02/25 02:00:57;;;;;;;12.03;4.00;;;2.50;99.90;2.20;99750.00;;;;4929682;28;109926;-66
2024/02/25 02:03:22;;;;;;;8.27;5.07;;;2.50;99.90;2.20;99741.00;;;;4928524;28;88996;-66
2024/02/25 02:05:48;;;;;;;4.30;2.77;;;2.50;99.90;2.10;99737.00;;;;4931249;28;116304;-66
2024/02/25 02:08:14;;;;;;;5.40;3.57;;;2.50;99.90;2.10;99741.00;;;;4928816;28;110232;-66
2024/02/25 02:10:39;;;;;;;3.73;2.67;;;2.40;99.90;2.10;99735.00;;;;4931781;28;87795;-66
2024/02/25 02:13:07;;;;;;;2.57;2.37;;;2.40;99.90;2.10;99748.00;;;;4929321;28;117979;-66
2024/02/25 02:15:32;;;;;;;3.57;3.07;;;2.40;99.90;2.10;99737.00;;;;4929437;28;88831;-66
2024/02/25 02:17:58;;;;;;;2.17;1.97;;;2.30;99.90;2.00;99735.00;;;;4929045;28;110115;-67
2024/02/25 02:20:24;;;;;;;3.17;2.47;;;2.80;99.90;2.00;99737.00;;;;4944856;28;108627;-66
2024/02/25 02:22:51;;;;;;;5.10;2.43;;;2.30;99.90;2.00;99740.00;;;;4929149;28;88952;-66
2024/02/25 02:25:16;;;;;;;3.90;2.57;;;2.30;99.90;2.00;99739.00;;;;4932026;28;88003;-66
2024/02/25 02:27:44;;;;;;;3.13;2.90;;;2.20;99.90;1.90;99727.00;;;;4933906;28;87649;-66
2024/02/25 02:30:11;;;;;;;3.87;2.90;;;2.20;99.90;1.90;99731.00;;;;4926334;28;87836;-66
2024/02/25 02:32:38;;;;;;;6.30;3.83;;;2.30;99.90;1.90;99728.00;;;;4930878;28;88565;-66
2024/02/25 02:35:05;;;;;;;9.20;5.10;;;2.20;99.90;1.90;99723.00;;;;4933301;28;88010;-66
2024/02/25 02:37:31;;;;;;;10.33;4.67;;;2.10;99.90;1.90;99733.00;;;;4931679;28;102271;-66
2024/02/25 02:39:57;;;;;;;3.63;3.27;;;2.20;99.90;1.90;99720.00;;;;4930279;28;89494;-67
2024/02/25 02:42:23;;;;;;;4.77;2.80;;;2.10;99.90;1.90;99731.00;;;;4928587;28;115429;-67
2024/02/25 02:44:50;;;;;;;3.30;2.83;;;2.20;99.90;1.80;99725.00;;;;4928828;28;88415;-66
2024/02/25 02:47:17;;;;;;;5.20;3.57;;;2.20;99.90;1.80;99729.00;;;;4930661;28;88717;-66
2024/02/25 02:49:44;;;;;;;4.83;2.40;;;2.10;99.90;1.80;99717.00;;;;4927089;28;88202;-66
2024/02/25 02:52:10;;;;;;;2.23;1.73;;;2.50;99.90;1.90;99711.00;;;;4929528;28;97503;-66
2024/02/25 02:54:36;;;;;;;4.40;2.67;;;2.10;99.90;1.90;99712.00;;;;4928230;28;88175;-67
2024/02/25 02:57:02;;;;;;;3.90;2.60;;;2.20;99.90;1.90;99713.00;;;;4931804;28;87286;-66
2024/02/25 02:59:28;;;;;;;3.43;3.13;;;2.20;99.90;1.90;99735.00;;;;4933257;28;93469;-66
2024/02/25 03:01:54;;;;;;;4.23;3.17;;;2.10;99.90;1.80;99731.00;;;;4931082;28;88080;-66
2024/02/25 03:04:20;;;;;;;2.70;2.47;;;2.20;99.90;1.80;99728.00;;;;4929237;28;116656;-66
2024/02/25 03:06:45;;;;;;;3.43;2.83;;;2.10;99.90;1.70;99718.00;;;;4932440;28;101947;-66
2024/02/25 03:09:14;;;;;;;3.03;2.33;;;2.00;99.90;1.70;99729.00;;;;4926648;28;108485;-66
2024/02/25 03:11:40;;;;;;;5.27;3.53;;;2.10;99.90;1.60;99726.00;;;;4930929;28;88358;-67
2024/02/25 03:14:06;;;;;;;7.57;3.63;;;2.80;99.90;1.60;99732.00;;;;4927911;28;110443;-67
2024/02/25 03:16:32;;;;;;;8.67;4.07;;;2.10;99.90;1.60;99735.00;;;;4928919;28;111587;-66
2024/02/25 03:18:58;;;;;;;8.40;5.33;;;1.80;99.90;1.50;99737.00;;;;4924694;28;101049;-66
2024/02/25 03:21:24;;;;;;;7.30;3.90;;;1.80;99.90;1.50;99732.00;;;;4929877;28;99718;-66
2024/02/25 03:23:50;;;;;;;11.77;7.43;;;2.50;99.90;1.50;99736.00;;;;4926575;28;117002;-67
2024/02/25 03:26:19;;;;;;;22.13;11.30;;;1.70;99.90;1.50;99718.00;;;;4933087;28;88467;-67
2024/02/25 03:28:45;;;;;;;16.77;8.53;;;1.80;99.90;1.50;99714.00;;;;4933893;28;89090;-66
2024/02/25 03:31:10;;;;;;;27.07;12.70;;;1.80;99.90;1.50;99714.00;;;;4929112;28;117266;-66
2024/02/25 03:33:37;;;;;;;33.40;14.93;;;1.80;99.90;1.50;99716.00;;;;4929902;28;118117;-66
2024/02/25 03:36:03;;;;;;;31.20;17.27;;;1.80;99.90;1.50;99719.00;;;;4928585;28;113286;-66
2024/02/25 03:38:29;;;;;;;23.93;11.10;;;1.80;99.90;1.50;99714.00;;;;4927488;28;90346;-67
2024/02/25 03:40:55;;;;;;;20.37;13.43;;;1.80;99.90;1.60;99713.00;;;;4929291;28;89087;-66
2024/02/25 03:43:21;;;;;;;32.60;14.50;;;1.90;99.90;1.60;99704.00;;;;4925303;28;117728;-66
2024/02/25 03:45:47;;;;;;;43.90;18.77;;;2.00;99.90;1.60;99721.00;;;;4928750;28;112286;-66
2024/02/25 03:48:13;;;;;;;32.57;19.43;;;2.00;99.90;1.70;99712.00;;;;4929531;28;107933;-66
2024/02/25 03:50:39;;;;;;;35.50;16.33;;;2.00;99.90;1.70;99723.00;;;;4931298;28;88090;-66
2024/02/25 03:53:05;;;;;;;9.53;6.70;;;2.00;99.90;1.70;99715.00;;;;4926408;28;118174;-66
2024/02/25 03:55:31;;;;;;;12.60;7.90;;;2.00;99.90;1.70;99722.00;;;;4929572;28;113905;-66
2024/02/25 03:57:57;;;;;;;19.47;7.27;;;1.90;99.90;1.60;99727.00;;;;4928704;28;88248;-66
2024/02/25 04:00:29;;;;;;;19.33;9.97;;;1.90;99.90;1.60;99730.00;;;;4926326;28;106107;-66
2024/02/25 04:02:55;;;;;;;11.70;7.00;;;1.90;99.90;1.60;99722.00;;;;4926357;28;104518;-66
2024/02/25 04:05:21;;;;;;;13.47;8.53;;;1.90;99.90;1.60;99713.00;;;;4926462;28;113856;-67
2024/02/25 04:07:46;;;;;;;13.33;8.83;;;1.90;99.90;1.60;99723.00;;;;4925578;28;107197;-66
2024/02/25 04:10:13;;;;;;;15.67;7.03;;;1.80;99.90;1.60;99713.00;;;;4929284;28;87587;-67
2024/02/25 04:12:40;;;;;;;15.03;5.37;;;1.80;99.90;1.60;99723.00;;;;4931507;28;88210;-66
2024/02/25 04:15:08;;;;;;;11.90;7.47;;;2.40;99.90;1.60;99716.00;;;;4931323;28;110532;-67
2024/02/25 04:17:34;;;;;;;10.83;5.60;;;1.90;99.90;1.70;99722.00;;;;4925448;28;96512;-66
2024/02/25 04:20:01;;;;;;;9.50;4.87;;;1.90;99.90;1.70;99725.00;;;;4931571;28;88103;-66
2024/02/25 04:22:27;;;;;;;11.53;5.20;;;2.90;99.90;1.70;99719.00;;;;4931679;28;89175;-66
2024/02/25 04:24:52;;;;;;;10.50;4.63;;;2.00;99.90;1.80;99731.00;;;;4931826;28;87788;-66
2024/02/25 04:27:19;;;;;;;10.00;4.60;;;2.00;99.90;1.80;99725.00;;;;4925731;28;108868;-66
2024/02/25 04:29:45;;;;;;;7.50;4.50;;;2.00;99.90;1.90;99717.00;;;;4929219;28;88793;-66
2024/02/25 04:32:12;;;;;;;6.37;4.23;;;2.20;99.90;1.90;99725.00;;;;4928276;28;87810;-66
2024/02/25 04:34:38;;;;;;;4.50;3.37;;;2.20;99.90;1.90;99720.00;;;;4931909;28;87145;-66
2024/02/25 04:37:04;;;;;;;6.77;3.73;;;2.30;99.90;1.90;99712.00;;;;4930503;28;91450;-66
2024/02/25 04:39:30;;;;;;;5.73;2.97;;;2.20;99.90;1.90;99717.00;;;;4927250;28;103573;-66
2024/02/25 04:41:59;;;;;;;4.03;2.57;;;2.20;99.90;1.90;99713.00;;;;4927331;28;93150;-66
2024/02/25 04:44:24;;;;;;;4.17;2.93;;;2.20;99.90;1.90;99718.00;;;;4930031;28;111204;-66
2024/02/25 04:46:50;;;;;;;4.30;2.70;;;2.20;99.90;1.90;99723.00;;;;4931463;28;108651;-66
2024/02/25 04:49:16;;;;;;;3.23;2.50;;;2.20;99.90;1.90;99713.00;;;;4924985;28;99013;-66
2024/02/25 04:51:45;;;;;;;3.83;2.23;;;2.30;99.90;1.90;99717.00;;;;4931068;28;88759;-66
2024/02/25 04:54:15;;;;;;;2.57;2.37;;;2.20;99.90;2.00;99724.00;;;;4929531;28;110353;-66
2024/02/25 04:56:42;;;;;;;8.40;3.17;;;2.20;99.90;2.00;99724.00;;;;4926610;28;87870;-66
2024/02/25 04:59:08;;;;;;;3.23;2.43;;;2.10;99.90;2.00;99717.00;;;;4930490;28;88013;-66
2024/02/25 05:01:34;;;;;;;7.07;3.17;;;2.10;99.90;2.00;99712.00;;;;4931509;28;88393;-66
2024/02/25 05:03:59;;;;;;;4.97;3.30;;;2.20;99.90;2.00;99717.00;;;;4927860;28;108475;-66
2024/02/25 05:06:25;;;;;;;6.33;4.07;;;2.20;99.90;1.90;99717.00;;;;4929605;28;109145;-67
2024/02/25 05:08:51;;;;;;;4.53;3.00;;;2.20;99.90;1.90;99724.00;;;;4927585;28;116280;-66
2024/02/25 05:11:16;;;;;;;6.07;2.80;;;2.20;99.90;1.90;99713.00;;;;4927934;28;115455;-66
2024/02/25 05:13:43;;;;;;;3.37;2.33;;;2.20;99.90;1.80;99713.00;;;;4932758;28;111047;-66
2024/02/25 05:16:09;;;;;;;3.60;2.43;;;2.20;99.90;1.80;99718.00;;;;4930813;28;87639;-67
2024/02/25 05:18:35;;;;;;;5.63;2.83;;;3.00;99.90;1.80;99718.00;;;;4929144;28;89165;-67
2024/02/25 05:21:04;;;;;;;5.23;3.33;;;2.00;99.90;1.70;99714.00;;;;4931681;28;88175;-66
2024/02/25 05:23:32;;;;;;;3.53;2.73;;;2.10;99.90;1.70;99714.00;;;;4934168;28;101938;-66
2024/02/25 05:25:58;;;;;;;2.73;2.33;;;2.00;99.90;1.70;99716.00;;;;4936302;28;87735;-66
2024/02/25 05:28:24;;;;;;;2.33;2.13;;;2.10;99.90;1.60;99722.00;;;;4934865;28;89889;-66
2024/02/25 05:30:51;;;;;;;6.40;3.13;;;1.90;99.90;1.60;99719.00;;;;4934831;28;88831;-67
2024/02/25 05:33:16;;;;;;;3.47;2.90;;;1.90;99.90;1.60;99715.00;;;;4945636;28;88089;-66
2024/02/25 05:35:42;;;;;;;4.67;2.33;;;1.90;99.90;1.60;99727.00;;;;4934224;28;91271;-67
2024/02/25 05:38:08;;;;;;;3.77;2.90;;;1.80;99.90;1.60;99717.00;;;;4930606;28;116862;-66
2024/02/25 05:40:34;;;;;;;6.17;3.73;;;1.90;99.90;1.50;99726.00;;;;4933308;28;88330;-67
2024/02/25 05:43:01;;;;;;;3.60;2.03;;;1.80;99.90;1.50;99726.00;;;;4932885;28;88428;-66
2024/02/25 05:45:26;;;;;;;2.77;2.53;;;1.80;99.90;1.50;99723.00;;;;4931817;28;108832;-66
2024/02/25 05:47:52;;;;;;;3.07;2.50;;;1.90;99.90;1.40;99722.00;;;;4931399;28;118439;-66
2024/02/25 05:50:18;;;;;;;6.33;3.70;;;1.70;99.90;1.40;99728.00;;;;4933174;28;116403;-66
2024/02/25 05:52:43;;;;;;;8.43;3.10;;;1.70;99.90;1.30;99728.00;;;;4932118;28;109564;-67
2024/02/25 05:55:09;;;;;;;5.10;2.80;;;1.60;99.90;1.30;99712.00;;;;4930045;28;88968;-66
2024/02/25 05:57:35;;;;;;;3.27;2.43;;;1.60;99.90;1.20;99722.00;;;;4934617;28;88264;-66
2024/02/25 06:00:01;;;;;;;3.50;2.57;;;1.60;99.90;1.20;99716.00;;;;4934185;28;117419;-66
2024/02/25 06:02:27;;;;;;;3.50;2.90;;;2.10;99.90;1.20;99731.00;;;;4936645;28;87982;-66
2024/02/25 06:04:53;;;;;;;9.70;3.13;;;1.60;99.90;1.20;99713.00;;;;4930129;28;109663;-66
2024/02/25 06:07:22;;;;;;;6.50;4.07;;;1.50;99.90;1.10;99719.00;;;;4936418;28;87942;-66
2024/02/25 06:09:48;;;;;;;6.43;3.17;;;1.40;99.90;1.10;99718.00;;;;4922087;28;108119;-66
2024/02/25 06:12:14;;;;;;;3.30;3.00;;;1.50;99.90;1.10;99722.00;;;;4931007;28;87214;-66
2024/02/25 06:14:39;;;;;;;3.70;2.93;;;2.00;99.90;1.10;99722.00;;;;4930476;28;105944;-66
2024/02/25 06:17:05;;;;;;;4.63;4.13;;;1.30;99.90;1.10;99714.00;;;;4931823;28;115074;-66
2024/02/25 06:19:33;;;;;;;7.17;4.67;;;1.30;99.90;1.00;99720.00;;;;4933224;28;117071;-66
2024/02/25 06:21:59;;;;;;;5.23;3.47;;;1.30;99.90;1.00;99714.00;;;;4929551;28;88015;-67
2024/02/25 06:24:25;;;;;;;5.17;4.17;;;2.40;99.90;1.00;99716.00;;;;4933777;28;97412;-66
2024/02/25 06:26:51;;;;;;;2.90;2.60;;;1.30;99.90;1.00;99714.00;;;;4936866;28;116857;-66
2024/02/25 06:29:17;;;;;;;8.37;3.30;;;1.30;99.90;1.00;99726.00;;;;4929973;28;116343;-66
2024/02/25 06:31:44;;;;;;;3.80;2.93;;;1.30;99.90;1.00;99717.00;;;;4930689;28;88148;-67
2024/02/25 06:34:11;;;;;;;4.50;3.10;;;1.30;99.90;1.00;99730.00;;;;4934206;28;87854;-67
2024/02/25 06:36:37;;;;;;;5.83;3.30;;;1.30;99.90;1.00;99725.00;;;;4930331;28;89800;-67
2024/02/25 06:39:03;;;;;;;4.53;2.77;;;1.40;99.90;1.10;99714.00;;;;4928344;28;101825;-66
2024/02/25 06:41:29;;;;;;;5.00;3.03;;;1.30;99.90;1.10;99718.00;;;;4929704;28;87956;-66
2024/02/25 06:43:54;;;;;;;5.67;3.47;;;1.40;99.90;1.20;99718.00;;;;4929153;28;89483;-66
2024/02/25 06:46:21;;;;;;;4.20;2.93;;;1.40;99.90;1.30;99709.00;;;;4927984;28;88948;-67
2024/02/25 06:48:47;;;;;;;5.60;3.37;;;1.60;99.90;1.40;99716.00;;;;4928183;28;88039;-66
2024/02/25 06:51:23;;;;;;;4.73;3.50;;;1.50;99.90;1.50;99711.00;;;;4924580;28;103507;-66
2024/02/25 06:53:49;;;;;;;6.60;4.63;;;1.60;99.90;1.60;99712.00;;;;4929033;28;88914;-66
2024/02/25 06:56:18;;;;;;;4.83;3.83;;;1.80;99.90;1.70;99715.00;;;;4927240;28;117522;-66
2024/02/25 06:58:44;;;;;;;6.43;4.00;;;2.00;99.90;1.80;99708.00;;;;4931103;28;98136;-66
2024/02/25 07:01:12;;;;;;;5.73;3.97;;;2.10;99.90;2.00;99711.00;;;;4931291;28;87187;-67
2024/02/25 07:03:44;;;;;;;5.10;4.27;;;2.10;99.90;2.20;99708.00;;;;4924820;28;87908;-66
2024/02/25 07:06:11;;;;;;;7.27;5.87;;;2.40;99.90;2.50;99698.00;;;;4927899;28;87945;-66
2024/02/25 07:08:37;;;;;;;9.53;7.37;;;2.50;99.90;2.70;99708.00;;;;4924873;28;89004;-66
2024/02/25 07:11:16;;;;;;;11.93;8.87;;;2.90;99.90;3.00;99706.00;;;;4927120;28;103876;-66
2024/02/25 07:13:42;;;;;;;13.60;7.50;;;3.10;99.90;3.30;99711.00;;;;4924946;28;88159;-66
2024/02/25 07:16:08;;;;;;;21.33;11.93;;;3.30;99.90;3.60;99706.00;;;;4926361;28;88734;-66
2024/02/25 07:18:34;;;;;;;19.17;11.03;;;3.60;99.90;4.00;99702.00;;;;4924647;28;98075;-66
2024/02/25 07:20:59;;;;;;;12.70;7.90;;;4.00;99.90;4.30;99703.00;;;;4923777;28;101731;-66
2024/02/25 07:23:25;;;;;;;7.13;5.63;;;4.30;99.90;4.70;99708.00;;;;4927488;28;97498;-66
2024/02/25 07:25:51;;;;;;;7.13;3.93;;;4.70;99.90;5.10;99702.00;;;;4928043;28;103719;-66
2024/02/25 07:28:16;;;;;;;6.07;5.00;;;5.30;99.90;5.50;99703.00;;;;4920655;28;105222;-66
2024/02/25 07:30:42;;;;;;;9.27;5.03;;;5.50;99.90;5.90;99714.00;;;;4927070;28;110051;-66
2024/02/25 07:33:09;;;;;;;6.23;4.80;;;5.90;99.90;6.30;99710.00;;;;4921045;28;108581;-66
2024/02/25 07:35:36;;;;;;;7.27;5.53;;;6.70;99.90;6.70;99717.00;;;;4923929;28;88947;-65
2024/02/25 07:38:02;;;;;;;9.87;5.20;;;7.00;99.90;7.10;99713.00;;;;4924629;28;88621;-65
2024/02/25 07:40:28;;;;;;;5.53;4.70;;;7.10;99.90;7.40;99708.00;;;;4923461;28;88127;-65
2024/02/25 07:42:54;;;;;;;4.33;3.60;;;7.60;99.90;7.70;99721.00;;;;4924688;28;91208;-65
2024/02/25 07:45:19;;;;;;;9.07;3.90;;;8.20;99.90;7.90;99723.00;;;;4927485;28;116826;-65
2024/02/25 07:47:45;;;;;;;4.90;3.10;;;7.90;99.90;8.00;99711.00;;;;4927053;28;88219;-65
2024/02/25 07:50:11;;;;;;;5.87;3.03;;;8.10;99.90;8.10;99716.00;;;;4925496;28;110614;-66
2024/02/25 07:52:37;;;;;;;5.60;3.43;;;8.20;99.90;8.10;99715.00;;;;4926913;28;103556;-66
2024/02/25 07:55:03;;;;;;;3.60;2.60;;;8.20;99.90;8.20;99717.00;;;;4923274;28;115394;-65
2024/02/25 07:57:33;;;;;;;5.23;3.70;;;9.30;99.90;8.50;99719.00;;;;4925109;28;88924;-66
2024/02/25 07:59:58;;;;;;;5.27;2.83;;;9.10;99.90;8.80;99720.00;;;;4925408;28;89802;-65
2024/02/25 08:02:24;;;;;;;3.90;3.10;;;8.80;99.90;9.20;99713.00;;;;4925143;28;102637;-66
2024/02/25 08:04:52;;;;;;;3.47;2.10;;;9.10;99.90;9.50;99706.00;;;;4923748;28;115690;-68
2024/02/25 08:07:18;;;;;;;3.93;2.57;;;9.40;99.90;9.80;99707.00;;;;4924708;28;116939;-67
2024/02/25 08:09:44;;;;;;;4.13;2.50;;;9.70;99.90;10.00;99699.00;;;;4925757;28;108740;-67
2024/02/25 08:12:10;;;;;;;3.37;2.10;;;9.90;99.90;10.10;99685.00;;;;4926696;28;106854;-66
2024/02/25 08:14:36;;;;;;;4.30;2.33;;;10.10;99.90;10.10;99690.00;;;;4919265;28;115854;-67
2024/02/25 08:17:02;;;;;;;2.03;1.60;;;10.10;99.90;10.30;99689.00;;;;4920452;28;88040;-67
2024/02/25 08:19:28;;;;;;;3.83;1.97;;;10.30;99.90;10.30;99693.00;;;;4921503;28;88220;-67
2024/02/25 08:21:53;;;;;;;2.40;1.80;;;10.30;99.90;10.20;99700.00;;;;4921681;28;108328;-66
2024/02/25 08:24:19;;;;;;;3.53;2.53;;;10.20;99.90;10.10;99699.00;;;;4920347;28;117858;-69
2024/02/25 08:26:45;;;;;;;2.97;2.27;;;10.20;99.90;10.00;99699.00;;;;4911269;28;117650;-66
2024/02/25 08:29:10;;;;;;;2.60;1.50;;;10.10;99.90;10.00;99688.00;;;;4926794;28;108799;-66
2024/02/25 08:31:36;;;;;;;2.90;2.53;;;10.10;99.90;10.00;99684.00;;;;4922184;28;109082;-66
2024/02/25 08:34:02;;;;;;;2.50;1.90;;;10.10;99.90;10.00;99682.00;;;;4922727;28;88925;-68
2024/02/25 08:36:28;;;;;;;3.07;2.47;;;10.00;99.90;10.00;99690.00;;;;4924169;28;88633;-67
2024/02/25 08:38:54;;;;;;;3.60;2.03;;;9.50;99.90;9.90;99681.00;;;;4923837;28;86959;-67
2024/02/25 08:41:20;;;;;;;2.97;2.63;;;10.00;99.90;9.90;99688.00;;;;4923803;28;108564;-66
2024/02/25 08:43:46;;;;;;;2.90;2.13;;;9.90;99.90;9.80;99689.00;;;;4926280;28;101022;-66
2024/02/25 08:46:11;;;;;;;4.37;1.80;;;10.00;99.90;9.80;99687.00;;;;4925948;28;116401;-66
2024/02/25 08:48:37;;;;;;;2.70;1.77;;;9.80;99.90;9.70;99685.00;;;;4922228;28;109919;-67
2024/02/25 08:51:03;;;;;;;3.90;3.03;;;9.80;99.90;9.70;99685.00;;;;4927848;28;87826;-66
2024/02/25 08:53:29;;;;;;;4.87;2.80;;;9.70;99.90;9.70;99688.00;;;;4924789;28;107862;-66
2024/02/25 08:55:54;;;;;;;10.13;5.10;;;9.70;99.90;9.70;99685.00;;;;4926836;28;117277;-68
2024/02/25 08:58:20;;;;;;;5.93;3.77;;;9.70;99.90;9.80;99680.00;;;;4928668;28;109913;-68
2024/02/25 09:00:46;;;;;;;4.27;2.60;;;9.80;99.90;9.90;99684.00;;;;4923762;28;108416;-68
2024/02/25 09:03:13;;;;;;;9.90;4.67;;;9.90;99.90;9.90;99684.00;;;;4928656;28;88422;-68
2024/02/25 09:05:41;;;;;;;4.57;3.07;;;9.90;99.90;10.00;99677.00;;;;4928364;28;92181;-68
2024/02/25 09:08:06;;;;;;;3.87;3.27;;;10.00;99.90;10.00;99674.00;;;;4931146;28;87942;-68
2024/02/25 09:10:36;;;;;;;6.67;4.67;;;10.00;99.90;10.00;99678.00;;;;4925175;28;92992;-68
2024/02/25 09:13:03;;;;;;;8.60;4.23;;;10.10;99.90;10.10;99670.00;;;;4922366;28;88652;-67
2024/02/25 09:15:30;;;;;;;7.20;3.20;;;10.00;99.90;10.10;99665.00;;;;4926664;28;88646;-68
2024/02/25 09:17:58;;;;;;;4.67;3.43;;;10.10;99.90;10.20;99666.00;;;;4926341;28;104652;-68
2024/02/25 09:20:25;;;;;;;5.70;2.93;;;10.20;99.90;10.20;99671.00;;;;4931597;28;88252;-67
2024/02/25 09:22:51;;;;;;;5.93;3.73;;;10.20;99.90;10.20;99665.00;;;;4927477;28;88074;-68
2024/02/25 09:25:16;;;;;;;4.00;2.80;;;10.30;99.90;10.20;99665.00;;;;4928380;28;117307;-68
2024/02/25 09:27:42;;;;;;;3.40;2.30;;;10.20;99.90;10.20;99657.00;;;;4929308;28;110433;-68
2024/02/25 09:30:08;;;;;;;2.90;2.30;;;10.20;99.90;10.20;99660.00;;;;4930993;28;106924;-67
2024/02/25 09:32:35;;;;;;;4.10;2.20;;;10.20;99.90;10.20;99652.00;;;;4925612;28;109142;-68
2024/02/25 09:35:01;;;;;;;4.60;2.60;;;10.20;99.90;10.20;99659.00;;;;4926932;28;89058;-68
2024/02/25 09:37:27;;;;;;;2.27;1.83;;;10.20;99.90;10.30;99659.00;;;;4924866;28;87621;-68
2024/02/25 09:39:52;;;;;;;2.23;1.60;;;10.30;99.90;10.40;99657.00;;;;4925087;28;108955;-68
2024/02/25 09:42:21;;;;;;;2.13;1.87;;;10.40;99.90;10.50;99664.00;;;;4921683;28;118702;-68
2024/02/25 09:44:53;;;;;;;3.30;2.23;;;10.60;99.90;10.70;99665.00;;;;4925582;28;87907;-68
2024/02/25 09:47:20;;;;;;;2.77;2.10;;;10.60;99.90;10.70;99658.00;;;;4929292;28;88121;-68
2024/02/25 09:49:48;;;;;;;5.60;2.23;;;10.70;99.90;10.70;99650.00;;;;4930226;28;87714;-68
2024/02/25 09:52:14;;;;;;;4.90;3.40;;;10.70;99.90;10.80;99652.00;;;;4925207;28;103987;-67
2024/02/25 09:54:40;;;;;;;2.50;2.30;;;10.80;99.90;10.80;99660.00;;;;4930663;28;88031;-67
2024/02/25 09:57:06;;;;;;;3.07;1.70;;;10.80;99.90;10.80;99647.00;;;;4929066;28;87743;-68
2024/02/25 09:59:32;;;;;;;3.97;2.90;;;10.80;99.90;10.80;99651.00;;;;4927067;28;107840;-67
2024/02/25 10:01:57;;;;;;;2.20;1.93;;;10.80;99.90;10.90;99655.00;;;;4925494;28;88992;-67
2024/02/25 10:04:25;;;;;;;2.23;1.87;;;10.80;99.90;11.30;99653.00;;;;4925451;28;88793;-67
2024/02/25 10:06:51;;;;;;;3.17;1.70;;;11.10;99.90;11.80;99645.00;;;;4928510;28;88493;-68
2024/02/25 10:09:33;;;;;;;2.53;1.50;;;11.60;99.90;12.50;99643.00;;;;4924243;28;108367;-68
2024/02/25 10:12:01;;;;;;;3.27;2.47;;;12.20;99.90;13.10;99649.00;;;;4932210;28;88402;-68
2024/02/25 10:14:27;;;;;;;2.33;1.80;;;12.80;99.90;13.80;99645.00;;;;4925217;28;88094;-68
2024/02/25 10:17:07;;;;;;;3.07;1.87;;;13.40;99.90;14.50;99646.00;;;;4924838;28;87178;-69
2024/02/25 10:19:33;;;;;;;1.90;1.70;;;14.00;99.90;15.10;99637.00;;;;4926086;28;87825;-68
2024/02/25 10:22:19;;;;;;;8.13;2.30;;;14.60;99.70;15.70;99642.00;;;;4927251;28;88480;-67
2024/02/25 10:24:47;;;;;;;3.85;3.17;;;15.20;99.10;16.30;99638.00;;;;4925659;28;88885;-68
2024/02/25 10:27:14;;;;;;;6.00;4.68;;;15.80;98.60;16.90;99637.00;;;;4929062;28;87758;-68
2024/02/25 10:29:51;;;;;;;2.67;2.10;;;16.40;97.90;17.60;99630.00;;;;4924191;28;87758;-68
2024/02/25 10:32:31;;;;;;;2.70;1.67;;;17.10;96.90;18.20;99620.00;;;;4929283;28;87613;-69
2024/02/25 10:34:59;;;;;;;2.03;1.50;;;17.70;96.10;18.70;99633.00;;;;4923975;28;87622;-68
2024/02/25 10:37:29;;;;;;;3.72;2.03;;;18.20;94.30;19.10;99625.00;;;;4928538;28;88629;-68
2024/02/25 10:40:05;;;;;;;3.10;1.98;;;18.60;92.50;19.50;99620.00;;;;4924579;28;87850;-68
2024/02/25 10:42:37;;;;;;;3.03;1.73;;;19.00;90.80;19.80;99615.00;;;;4924983;28;88484;-68
2024/02/25 10:45:04;;;;;;;1.55;1.23;;;19.40;90.10;20.20;99616.00;;;;4921268;28;88046;-68
2024/02/25 10:47:31;;;;;;;1.67;1.27;;;19.70;88.30;20.50;99619.00;;;;4925650;28;98916;-68
2024/02/25 10:49:57;;;;;;;2.95;1.88;;;20.10;85.80;20.80;99614.00;;;;4926969;28;89211;-68
2024/02/25 10:52:28;;;;;;;3.00;1.30;;;20.30;84.30;21.10;99607.00;;;;4930229;28;87865;-65
2024/02/25 10:54:57;;;;;;;1.80;1.50;;;20.70;82.60;21.50;99605.00;;;;4926289;28;88330;-68
2024/02/25 10:57:23;;;;;;;1.33;1.02;;;21.00;80.50;21.70;99603.00;;;;4927053;28;88008;-68
2024/02/25 10:59:49;;;;;;;1.95;1.23;;;21.30;73.40;21.80;99591.00;;;;4926224;28;96439;-67